createdAt,value
2023-05-03T00:00:27.725Z,16.60
2023-05-03T00:02:54.775Z,15.77
2023-05-03T00:05:21.541Z,14.76
2023-05-03T00:07:48.201Z,13.98
2023-05-03T00:10:17.657Z,13.75
2023-05-03T00:12:44.483Z,14.83
2023-05-03T00:15:11.679Z,15.93
2023-05-03T00:17:38.786Z,16.31
2023-05-03T00:20:06.493Z,15.48
2023-05-03T00:22:33.225Z,14.50
2023-05-03T00:25:00.663Z,13.76
2023-05-03T00:27:28.825Z,13.48
2023-05-03T00:29:55.511Z,14.26
2023-05-03T00:32:22.923Z,15.03
2023-05-03T00:34:55.032Z,15.58
2023-05-03T00:37:22.817Z,15.67
2023-05-03T00:39:49.693Z,14.83
2023-05-03T00:42:16.899Z,13.95
2023-05-03T00:44:43.623Z,13.26
2023-05-03T00:47:10.990Z,13.02
2023-05-03T00:49:38.703Z,13.92
2023-05-03T00:52:06.725Z,14.90
2023-05-03T00:54:35.228Z,15.44
2023-05-03T00:57:04.468Z,14.65
2023-05-03T00:59:32.634Z,13.70
2023-05-03T01:01:59.293Z,12.99
2023-05-03T01:04:26.854Z,12.80
2023-05-03T01:06:59.490Z,13.62
2023-05-03T01:09:34.565Z,14.28
2023-05-03T01:12:19.519Z,14.68
2023-05-03T01:15:08.697Z,15.19
2023-05-03T01:17:57.927Z,15.51
2023-05-03T01:20:28.378Z,14.55
2023-05-03T01:22:58.346Z,13.77
2023-05-03T01:25:26.950Z,13.20
2023-05-03T01:27:53.497Z,13.00
2023-05-03T01:30:23.544Z,13.84
2023-05-03T01:33:16.945Z,14.79
2023-05-03T01:35:52.671Z,15.23
2023-05-03T01:38:21.425Z,14.42
2023-05-03T01:40:57.697Z,13.54
2023-05-03T01:43:26.285Z,12.78
2023-05-03T01:45:52.912Z,12.37
2023-05-03T01:48:19.880Z,12.80
2023-05-03T01:50:46.909Z,13.69
2023-05-03T01:53:13.665Z,14.49
2023-05-03T01:55:41.457Z,14.67
2023-05-03T01:58:08.019Z,13.67
2023-05-03T02:00:34.616Z,12.62
2023-05-03T02:03:01.222Z,11.78
2023-05-03T02:05:27.894Z,11.48
2023-05-03T02:07:54.571Z,12.36
2023-05-03T02:10:21.308Z,13.18
2023-05-03T02:12:48.203Z,13.80
2023-05-03T02:15:15.085Z,13.85
2023-05-03T02:17:43.845Z,12.96
2023-05-03T02:20:10.945Z,12.05
2023-05-03T02:22:37.541Z,11.64
2023-05-03T02:25:05.030Z,12.24
2023-05-03T02:27:31.682Z,12.74
2023-05-03T02:29:58.223Z,13.00
2023-05-03T02:32:25.993Z,13.24
2023-05-03T02:34:52.751Z,13.63
2023-05-03T02:37:19.676Z,13.77
2023-05-03T02:39:46.678Z,13.01
2023-05-03T02:42:13.472Z,12.15
2023-05-03T02:44:40.281Z,11.51
2023-05-03T02:47:08.396Z,11.23
2023-05-03T02:49:35.919Z,11.79
2023-05-03T02:52:02.503Z,12.32
2023-05-03T02:54:29.085Z,12.73
2023-05-03T02:56:56.698Z,12.97
2023-05-03T02:59:23.376Z,12.92
2023-05-03T03:01:50.865Z,12.28
2023-05-03T03:04:17.565Z,11.59
2023-05-03T03:06:44.161Z,11.09
2023-05-03T03:09:12.530Z,10.93
2023-05-03T03:11:39.769Z,11.74
2023-05-03T03:14:07.923Z,12.70
2023-05-03T03:16:35.349Z,12.95
2023-05-03T03:19:01.922Z,12.21
2023-05-03T03:21:29.819Z,11.43
2023-05-03T03:23:56.831Z,10.80
2023-05-03T03:26:23.551Z,10.53
2023-05-03T03:28:51.915Z,11.05
2023-05-03T03:31:18.564Z,11.67
2023-05-03T03:33:46.296Z,12.04
2023-05-03T03:36:14.555Z,12.31
2023-05-03T03:38:41.423Z,12.61
2023-05-03T03:41:08.615Z,12.70
2023-05-03T03:43:35.919Z,12.16
2023-05-03T03:46:03.471Z,11.54
2023-05-03T03:48:30.256Z,11.05
2023-05-03T03:50:56.930Z,10.94
2023-05-03T03:53:25.186Z,11.70
2023-05-03T03:55:51.733Z,12.28
2023-05-03T04:00:25.284Z,12.80
2023-05-03T04:02:56.247Z,12.33
2023-05-03T04:05:23.008Z,11.77
2023-05-03T04:07:49.965Z,11.35
2023-05-03T04:10:17.170Z,11.04
2023-05-03T04:12:43.995Z,10.98
2023-05-03T04:15:11.817Z,11.71
2023-05-03T04:17:39.546Z,12.34
2023-05-03T04:20:11.142Z,12.80
2023-05-03T04:22:40.252Z,12.96
2023-05-03T04:25:11.007Z,12.42
2023-05-03T04:27:38.259Z,11.81
2023-05-03T04:30:06.552Z,11.35
2023-05-03T04:32:37.774Z,11.03
2023-05-03T04:35:12.560Z,10.96
2023-05-03T04:37:42.763Z,11.78
2023-05-03T04:40:12.107Z,12.50
2023-05-03T04:42:42.496Z,12.80
2023-05-03T04:45:10.887Z,12.39
2023-05-03T04:47:37.663Z,11.90
2023-05-03T04:50:04.725Z,11.56
2023-05-03T04:52:31.873Z,11.33
2023-05-03T04:54:58.441Z,11.18
2023-05-03T04:57:26.058Z,11.07
2023-05-03T04:59:54.135Z,11.03
2023-05-03T05:02:21.569Z,11.17
2023-05-03T05:04:48.782Z,11.88
2023-05-03T05:07:15.586Z,12.64
2023-05-03T05:09:43.526Z,13.09
2023-05-03T05:12:11.501Z,12.83
2023-05-03T05:14:39.918Z,12.51
2023-05-03T05:17:07.951Z,12.23
2023-05-03T05:19:35.883Z,12.03
2023-05-03T05:22:02.670Z,11.90
2023-05-03T05:24:37.973Z,11.84
2023-05-03T05:27:05.096Z,11.84
2023-05-03T05:29:31.700Z,11.79
2023-05-03T05:31:59.775Z,11.68
2023-05-03T05:34:26.706Z,11.52
2023-05-03T05:36:54.640Z,11.37
2023-05-03T05:39:23.429Z,11.25
2023-05-03T05:41:50.601Z,11.14
2023-05-03T05:44:17.180Z,11.05
2023-05-03T05:46:44.891Z,10.98
2023-05-03T05:49:11.546Z,10.96
2023-05-03T05:51:39.448Z,10.97
2023-05-03T05:54:07.816Z,11.01
2023-05-03T05:56:34.726Z,11.03
2023-05-03T05:59:01.414Z,11.06
2023-05-03T06:01:28.583Z,11.09
2023-05-03T06:03:56.419Z,11.09
2023-05-03T06:06:23.228Z,11.09
2023-05-03T06:08:51.492Z,11.11
2023-05-03T06:11:18.235Z,11.14
2023-05-03T06:13:45.135Z,11.19
2023-05-03T06:16:14.044Z,11.22
2023-05-03T06:18:40.690Z,11.22
2023-05-03T06:21:07.671Z,11.21
2023-05-03T06:23:35.350Z,11.21
2023-05-03T06:26:02.773Z,11.22
2023-05-03T06:28:29.708Z,11.29
2023-05-03T06:30:56.380Z,11.43
2023-05-03T06:33:23.395Z,11.58
2023-05-03T06:35:51.687Z,11.77
2023-05-03T06:38:19.051Z,12.11
2023-05-03T06:40:46.531Z,12.96
2023-05-03T06:43:14.233Z,14.49
2023-05-03T06:45:53.465Z,16.44
2023-05-03T06:48:21.313Z,18.35
2023-05-03T06:50:48.369Z,20.26
2023-05-03T06:53:15.150Z,21.90
2023-05-03T06:55:45.504Z,23.42
2023-05-03T06:58:12.172Z,24.90
2023-05-03T07:00:41.716Z,26.27
2023-05-03T07:03:08.470Z,27.51
2023-05-03T07:05:35.193Z,28.55
2023-05-03T07:08:01.799Z,29.40
2023-05-03T07:10:31.274Z,30.29
2023-05-03T07:12:58.421Z,31.05
2023-05-03T07:15:25.028Z,31.39
2023-05-03T07:17:51.664Z,31.87
2023-05-03T07:20:18.432Z,32.35
2023-05-03T07:22:45.157Z,32.70
2023-05-03T07:25:14.243Z,33.11
2023-05-03T07:27:41.011Z,33.40
2023-05-03T07:30:08.209Z,33.90
2023-05-03T07:32:34.914Z,34.66
2023-05-03T07:35:01.575Z,35.18
2023-05-03T07:37:28.174Z,35.42
2023-05-03T07:39:54.780Z,35.51
2023-05-03T07:42:21.308Z,35.83
2023-05-03T07:44:47.940Z,36.07
2023-05-03T07:47:14.479Z,35.85
2023-05-03T07:49:41.190Z,35.45
2023-05-03T07:52:07.836Z,35.24
2023-05-03T07:54:34.472Z,34.95
2023-05-03T07:57:01.358Z,34.82
2023-05-03T07:59:27.942Z,34.46
2023-05-03T08:01:54.559Z,33.20
2023-05-03T08:04:21.838Z,32.61
2023-05-03T08:06:49.163Z,32.49
2023-05-03T08:09:15.802Z,32.17
2023-05-03T08:11:44.098Z,32.72
2023-05-03T08:14:11.395Z,33.31
2023-05-03T08:16:38.789Z,33.79
2023-05-03T08:19:05.395Z,34.21
2023-05-03T08:21:33.532Z,34.71
2023-05-03T08:24:00.893Z,35.65
2023-05-03T08:26:29.807Z,36.71
2023-05-03T08:28:56.613Z,37.03
2023-05-03T08:31:23.373Z,36.75
2023-05-03T08:33:50.053Z,36.62
2023-05-03T08:36:16.830Z,36.66
2023-05-03T08:38:43.466Z,36.63
2023-05-03T08:41:26.142Z,36.65
2023-05-03T08:43:54.510Z,35.43
2023-05-03T08:46:21.590Z,33.48
2023-05-03T08:48:49.750Z,31.84
2023-05-03T08:51:18.129Z,31.26
2023-05-03T08:53:48.529Z,32.00
2023-05-03T08:56:34.751Z,33.29
2023-05-03T08:59:07.506Z,34.46
2023-05-03T09:01:37.262Z,35.28
2023-05-03T09:04:04.555Z,35.43
2023-05-03T09:06:33.305Z,34.18
2023-05-03T09:09:01.756Z,32.82
2023-05-03T09:11:30.962Z,32.47
2023-05-03T09:14:18.249Z,33.12
2023-05-03T09:16:47.285Z,34.43
2023-05-03T09:19:14.890Z,35.04
2023-05-03T09:21:44.095Z,35.00
2023-05-03T09:24:15.961Z,35.09
2023-05-03T09:26:43.614Z,36.09
2023-05-03T09:29:10.273Z,37.24
2023-05-03T09:31:37.930Z,38.38
2023-05-03T09:34:22.961Z,39.36
2023-05-03T09:36:49.619Z,40.04
2023-05-03T09:39:19.848Z,40.68
2023-05-03T09:41:47.100Z,41.41
2023-05-03T09:44:13.856Z,42.02
2023-05-03T09:47:00.582Z,41.95
2023-05-03T09:49:27.504Z,42.04
2023-05-03T09:51:55.100Z,42.27
2023-05-03T09:54:25.682Z,42.32
2023-05-03T09:56:55.419Z,42.45
2023-05-03T09:59:22.007Z,41.75
2023-05-03T10:01:49.054Z,39.79
2023-05-03T10:04:19.812Z,37.89
2023-05-03T10:06:49.352Z,37.16
2023-05-03T10:09:20.838Z,37.58
2023-05-03T10:11:53.266Z,38.67
2023-05-03T10:14:22.981Z,39.84
2023-05-03T10:16:53.305Z,40.86
2023-05-03T10:19:27.495Z,41.36
2023-05-03T10:22:07.738Z,41.77
2023-05-03T10:24:36.183Z,42.23
2023-05-03T10:27:07.136Z,42.38
2023-05-03T10:29:34.493Z,42.17
2023-05-03T10:32:02.331Z,41.00
2023-05-03T10:34:33.965Z,39.22
2023-05-03T10:37:09.693Z,37.85
2023-05-03T10:39:37.229Z,37.97
2023-05-03T10:42:08.739Z,38.57
2023-05-03T10:44:51.282Z,38.98
2023-05-03T10:47:23.634Z,39.16
2023-05-03T10:50:16.232Z,39.42
2023-05-03T10:52:42.976Z,38.60
2023-05-03T10:55:10.740Z,36.82
2023-05-03T10:57:40.327Z,35.82
2023-05-03T11:00:36.990Z,35.93
2023-05-03T11:03:31.449Z,36.61
2023-05-03T11:05:58.274Z,37.51
2023-05-03T11:08:25.994Z,38.21
2023-05-03T11:11:00.893Z,38.07
2023-05-03T11:13:28.055Z,36.94
2023-05-03T11:15:56.367Z,36.78
2023-05-03T11:18:27.586Z,36.82
2023-05-03T11:20:54.439Z,36.57
2023-05-03T11:23:25.513Z,36.51
2023-05-03T11:25:52.536Z,36.71
2023-05-03T11:28:19.157Z,37.34
2023-05-03T11:30:46.964Z,37.74
2023-05-03T11:33:13.659Z,36.48
2023-05-03T11:35:40.592Z,34.59
2023-05-03T11:38:07.210Z,33.16
2023-05-03T11:40:33.833Z,33.24
2023-05-03T11:43:01.023Z,33.60
2023-05-03T11:45:45.994Z,33.70
2023-05-03T11:48:14.099Z,33.70
2023-05-03T11:50:47.071Z,33.82
2023-05-03T11:53:15.356Z,33.93
2023-05-03T11:55:43.847Z,33.88
2023-05-03T11:58:26.797Z,33.63
2023-05-03T12:00:55.293Z,33.29
2023-05-03T12:03:27.636Z,33.70
2023-05-03T12:05:57.505Z,34.50
2023-05-03T12:08:35.629Z,34.78
2023-05-03T12:11:07.477Z,34.53
2023-05-03T12:13:39.853Z,34.42
2023-05-03T12:18:57.477Z,34.54
2023-05-03T12:23:56.963Z,34.51
2023-05-03T12:26:25.388Z,34.69
2023-05-03T12:28:55.956Z,34.90
2023-05-03T12:31:23.696Z,34.62
2023-05-03T12:34:12.893Z,34.17
2023-05-03T12:36:38.492Z,33.16
2023-05-03T12:39:10.139Z,32.84
2023-05-03T12:44:10.328Z,31.18
2023-05-03T12:46:38.936Z,30.41
2023-05-03T12:49:07.930Z,29.68
2023-05-03T12:51:35.636Z,29.09
2023-05-03T12:54:03.658Z,28.24
2023-05-03T12:56:32.563Z,27.41
2023-05-03T12:59:26.838Z,26.68
2023-05-03T13:03:08.072Z,26.64
2023-05-03T13:04:56.768Z,27.17
2023-05-03T13:07:28.212Z,27.66
2023-05-03T13:12:27.360Z,27.33
2023-05-03T13:14:56.645Z,26.92
2023-05-03T13:17:23.625Z,26.62
2023-05-03T13:19:51.490Z,26.50
2023-05-03T13:22:18.547Z,26.08
2023-05-03T13:24:47.030Z,25.36
2023-05-03T13:27:14.509Z,24.62
2023-05-03T13:29:41.408Z,23.94
2023-05-03T13:32:08.556Z,23.24
2023-05-03T13:34:35.625Z,22.71
2023-05-03T13:37:04.317Z,22.30
2023-05-03T13:39:32.065Z,21.92
2023-05-03T13:41:59.073Z,21.56
2023-05-03T13:44:26.339Z,21.27
2023-05-03T13:46:53.512Z,21.11
2023-05-03T13:49:20.705Z,21.11
2023-05-03T13:51:48.188Z,21.38
2023-05-03T13:54:15.099Z,21.53
2023-05-03T13:56:43.108Z,21.61
2023-05-03T13:59:13.931Z,21.90
2023-05-03T14:01:41.261Z,22.05
2023-05-03T14:04:08.209Z,22.27
2023-05-03T14:06:34.981Z,22.46
2023-05-03T14:09:02.834Z,22.68
2023-05-03T14:11:30.848Z,22.66
2023-05-03T14:13:58.881Z,22.43
2023-05-03T14:18:56.981Z,22.09
2023-05-03T14:21:23.849Z,21.96
2023-05-03T14:23:51.155Z,21.77
2023-05-03T14:26:19.556Z,21.59
2023-05-03T14:28:46.587Z,21.45
2023-05-03T14:31:13.613Z,21.26
2023-05-03T14:33:40.293Z,21.14
2023-05-03T14:36:10.837Z,21.08
2023-05-03T14:38:37.604Z,21.03
2023-05-03T14:41:04.485Z,21.01
2023-05-03T14:43:31.558Z,21.07
2023-05-03T14:45:58.304Z,21.13
2023-05-03T14:48:24.896Z,21.18
2023-05-03T14:50:52.482Z,21.18
2023-05-03T14:53:19.328Z,21.02
2023-05-03T14:55:46.763Z,20.82
2023-05-03T14:58:13.635Z,20.62
2023-05-03T15:00:41.493Z,20.51
2023-05-03T15:03:13.119Z,20.46
2023-05-03T15:05:46.887Z,20.46
2023-05-03T15:08:15.469Z,20.45
2023-05-03T15:10:44.520Z,20.35
2023-05-03T15:13:12.612Z,20.21
2023-05-03T15:15:40.767Z,20.07
2023-05-03T15:18:11.435Z,19.85
2023-05-03T15:20:39.140Z,19.60
2023-05-03T15:23:06.318Z,19.36
2023-05-03T15:25:33.098Z,19.15
2023-05-03T15:28:03.716Z,18.91
2023-05-03T15:30:32.187Z,18.64
2023-05-03T15:32:59.247Z,18.34
2023-05-03T15:35:26.021Z,18.05
2023-05-03T15:37:52.750Z,17.80
2023-05-03T15:40:23.736Z,17.61
2023-05-03T15:42:52.003Z,17.53
2023-05-03T15:45:18.991Z,17.50
2023-05-03T15:47:46.364Z,17.44
2023-05-03T15:50:13.409Z,17.37
2023-05-03T15:52:40.543Z,17.27
2023-05-03T15:55:09.477Z,17.17
2023-05-03T15:57:36.184Z,17.06
2023-05-03T16:00:13.554Z,17.04
2023-05-03T16:02:40.669Z,17.05
2023-05-03T16:05:07.813Z,17.08
2023-05-03T16:07:34.561Z,17.15
2023-05-03T16:10:01.580Z,17.20
2023-05-03T16:12:28.500Z,17.28
2023-05-03T16:14:55.678Z,17.28
2023-05-03T16:17:22.450Z,17.24
2023-05-03T16:19:49.057Z,17.15
2023-05-03T16:22:16.932Z,17.06
2023-05-03T16:24:43.556Z,16.94
2023-05-03T16:27:10.296Z,16.81
2023-05-03T16:29:37.741Z,16.71
2023-05-03T16:32:06.435Z,16.61
2023-05-03T16:34:33.048Z,16.50
2023-05-03T16:37:00.902Z,16.34
2023-05-03T16:39:27.532Z,16.18
2023-05-03T16:41:54.334Z,16.03
2023-05-03T16:44:21.331Z,15.88
2023-05-03T16:46:48.890Z,15.72
2023-05-03T16:49:16.129Z,15.57
2023-05-03T16:51:43.263Z,15.45
2023-05-03T16:54:10.045Z,15.40
2023-05-03T16:56:37.486Z,15.32
2023-05-03T16:59:04.179Z,15.24
2023-05-03T17:01:31.009Z,15.21
2023-05-03T17:03:57.754Z,15.15
2023-05-03T17:06:24.376Z,15.06
2023-05-03T17:08:50.966Z,14.95
2023-05-03T17:11:17.923Z,14.85
2023-05-03T17:13:44.609Z,14.78
2023-05-03T17:16:15.295Z,14.71
2023-05-03T17:18:42.209Z,14.58
2023-05-03T17:21:10.092Z,14.41
2023-05-03T17:23:38.765Z,14.23
2023-05-03T17:26:08.670Z,14.06
2023-05-03T17:28:35.850Z,13.90
2023-05-03T17:31:03.416Z,13.75
2023-05-03T17:33:30.103Z,13.61
2023-05-03T17:35:57.080Z,13.47
2023-05-03T17:38:23.939Z,13.32
2023-05-03T17:40:50.845Z,13.17
2023-05-03T17:43:17.712Z,13.01
2023-05-03T17:45:47.501Z,12.86
2023-05-03T17:48:14.729Z,12.71
2023-05-03T17:50:43.350Z,12.57
2023-05-03T17:53:10.343Z,12.44
2023-05-03T17:55:40.971Z,12.31
2023-05-03T17:58:09.426Z,12.18
2023-05-03T18:00:36.217Z,12.03
2023-05-03T18:03:03.152Z,11.89
2023-05-03T18:05:36.811Z,11.75
2023-05-03T18:08:03.789Z,11.60
2023-05-03T18:10:31.204Z,11.44
2023-05-03T18:12:58.259Z,11.29
2023-05-03T18:15:25.279Z,11.13
2023-05-03T18:17:52.954Z,10.98
2023-05-03T18:20:19.891Z,10.80
2023-05-03T18:22:46.524Z,10.58
2023-05-03T18:25:13.688Z,10.37
2023-05-03T18:27:40.381Z,10.17
2023-05-03T18:30:07.804Z,10.00
2023-05-03T18:32:34.853Z,9.82
2023-05-03T18:35:02.526Z,9.66
2023-05-03T18:37:29.556Z,9.48
2023-05-03T18:39:56.345Z,9.30
2023-05-03T18:42:23.080Z,9.13
2023-05-03T18:44:49.760Z,8.98
2023-05-03T18:47:20.617Z,8.85
2023-05-03T18:49:52.540Z,8.71
2023-05-03T18:52:23.532Z,8.57
2023-05-03T18:54:50.849Z,8.44
2023-05-03T18:57:17.693Z,8.32
2023-05-03T18:59:56.588Z,8.20
2023-05-03T19:02:25.324Z,8.08
2023-05-03T19:04:52.725Z,7.98
2023-05-03T19:07:19.719Z,7.87
2023-05-03T19:09:46.461Z,7.73
2023-05-03T19:12:13.741Z,7.62
2023-05-03T19:14:43.341Z,7.51
2023-05-03T19:17:10.167Z,7.40
2023-05-03T19:19:36.924Z,7.30
2023-05-03T19:22:03.677Z,7.21
2023-05-03T19:24:30.501Z,7.10
2023-05-03T19:26:57.402Z,7.00
2023-05-03T19:29:23.998Z,6.90
2023-05-03T19:31:50.585Z,6.90
2023-05-03T19:34:17.812Z,7.51
2023-05-03T19:36:44.534Z,8.32
2023-05-03T19:39:14.181Z,8.92
2023-05-03T19:41:41.560Z,9.15
2023-05-03T19:44:09.259Z,8.68
2023-05-03T19:46:36.493Z,8.13
2023-05-03T19:49:03.237Z,7.68
2023-05-03T19:51:30.062Z,7.33
2023-05-03T19:53:57.689Z,7.04
2023-05-03T19:56:25.154Z,6.92
2023-05-03T19:58:51.854Z,7.39
2023-05-03T20:01:18.754Z,7.96
2023-05-03T20:03:46.801Z,8.44
2023-05-03T20:06:14.320Z,8.80
2023-05-03T20:08:41.273Z,8.93
2023-05-03T20:11:08.050Z,8.40
2023-05-03T20:13:34.939Z,7.78
2023-05-03T20:16:05.353Z,7.30
2023-05-03T20:18:32.050Z,6.92
2023-05-03T20:20:58.826Z,6.61
2023-05-03T20:23:26.915Z,6.48
2023-05-03T20:25:53.766Z,6.95
2023-05-03T20:28:20.585Z,7.49
2023-05-03T20:30:47.667Z,7.90
2023-05-03T20:33:14.796Z,8.35
2023-05-03T20:35:41.620Z,8.70
2023-05-03T20:38:08.337Z,8.71
2023-05-03T20:40:36.263Z,8.08
2023-05-03T20:43:06.194Z,7.39
2023-05-03T20:45:32.982Z,6.98
2023-05-03T20:47:59.718Z,7.24
2023-05-03T20:50:26.483Z,7.84
2023-05-03T20:52:55.008Z,8.14
2023-05-03T20:55:21.783Z,8.24
2023-05-03T20:57:48.684Z,8.29
2023-05-03T21:00:16.005Z,8.32
2023-05-03T21:02:43.443Z,8.25
2023-05-03T21:05:11.465Z,7.68
2023-05-03T21:07:38.754Z,7.03
2023-05-03T21:10:07.673Z,6.51
2023-05-03T21:12:34.921Z,6.22
2023-05-03T21:15:03.127Z,6.54
2023-05-03T21:17:29.837Z,6.95
2023-05-03T21:19:57.172Z,7.28
2023-05-03T21:22:24.077Z,7.48
2023-05-03T21:24:51.138Z,7.63
2023-05-03T21:27:19.374Z,7.74
2023-05-03T21:29:46.508Z,7.82
2023-05-03T21:32:13.469Z,7.87
2023-05-03T21:34:40.160Z,7.89
2023-05-03T21:37:07.450Z,7.94
2023-05-03T21:39:34.189Z,7.94
2023-05-03T21:42:00.977Z,7.93
2023-05-03T21:44:27.823Z,7.95
2023-05-03T21:46:54.535Z,7.87
2023-05-03T21:49:21.559Z,7.26
2023-05-03T21:51:48.320Z,6.59
2023-05-03T21:54:17.159Z,6.03
2023-05-03T21:56:43.882Z,5.73
2023-05-03T21:59:10.505Z,6.00
2023-05-03T22:01:38.240Z,6.35
2023-05-03T22:04:06.206Z,6.59
2023-05-03T22:06:33.248Z,6.72
2023-05-03T22:08:59.827Z,6.85
2023-05-03T22:11:26.419Z,6.95
2023-05-03T22:14:06.813Z,7.06
2023-05-03T22:16:38.944Z,7.15
2023-05-03T22:19:05.704Z,7.24
2023-05-03T22:21:32.608Z,7.31
2023-05-03T22:23:59.263Z,7.38
2023-05-03T22:26:26.075Z,7.42
2023-05-03T22:28:52.637Z,7.40
2023-05-03T22:31:19.595Z,7.35
2023-05-03T22:33:47.229Z,7.34
2023-05-03T22:36:14.658Z,7.30
2023-05-03T22:38:43.084Z,7.21
2023-05-03T22:41:10.315Z,7.14
2023-05-03T22:43:37.062Z,7.10
2023-05-03T22:46:04.149Z,7.06
2023-05-03T22:48:32.558Z,7.02
2023-05-03T22:51:00.180Z,7.00
2023-05-03T22:53:26.841Z,7.00
2023-05-03T22:56:01.542Z,7.01
2023-05-03T22:58:28.656Z,7.01
2023-05-03T23:00:56.546Z,7.07
2023-05-03T23:03:23.426Z,7.04
2023-05-03T23:05:53.301Z,6.95
2023-05-03T23:08:20.262Z,6.83
2023-05-03T23:10:47.283Z,6.72
2023-05-03T23:13:13.908Z,6.77
2023-05-03T23:15:40.525Z,6.82
2023-05-03T23:18:09.649Z,6.84
2023-05-03T23:20:36.655Z,6.80
2023-05-03T23:23:03.286Z,6.74
2023-05-03T23:25:29.955Z,6.70
2023-05-03T23:27:56.702Z,6.65
2023-05-03T23:30:24.005Z,6.68
2023-05-03T23:32:51.235Z,6.66
2023-05-03T23:35:18.533Z,6.62
2023-05-03T23:37:45.096Z,6.59
2023-05-03T23:40:13.095Z,6.62
2023-05-03T23:42:41.479Z,6.62
2023-05-03T23:45:09.801Z,6.61
2023-05-03T23:47:37.040Z,6.59
2023-05-03T23:50:05.115Z,6.60
2023-05-03T23:52:31.988Z,6.65
2023-05-03T23:54:58.565Z,6.72
2023-05-03T23:57:25.233Z,6.77
2023-05-03T23:59:51.833Z,6.80
